Dagmar, Montana
Current Conditions -  °F | °C
As of 12:52 PM on Monday 24 Nov 2014 (Local Time) from KISN Reporting Station
Few Clouds Few Clouds  
Wind Chill: 15°   Ceiling: Unl
Heat Index: 25°   Visibility: 10mi
Dew Point: 17°   Wind: 10mph
Humidity: 72%   Direction: 280°W
Pressure: 29.99"   Gusts: NA
Location:  48.58°N, 104.2°W
Report Text: KISN 241952Z AUTO 28009KT 10SM FEW012 M04/M08 A2999 RMK AO2 SLP192 T10391083
Loading
Personal Weather Stations






























Interactive Weather Map New forecast layout! Learn more

10-Day Weather Forecast

Advertisements
Track Severe Weather on mobile